createdAt,value
2022-09-26T00:01:35.724Z,6.57
2022-09-26T00:04:07.851Z,6.50
2022-09-26T00:06:35.186Z,6.27
2022-09-26T00:09:02.324Z,6.88
2022-09-26T00:11:32.392Z,6.75
2022-09-26T00:14:09.133Z,6.75
2022-09-26T00:16:36.456Z,6.38
2022-09-26T00:19:05.126Z,6.22
2022-09-26T00:21:33.338Z,7.63
2022-09-26T00:24:01.793Z,7.55
2022-09-26T00:26:31.179Z,8.55
2022-09-26T00:29:01.389Z,8.50
2022-09-26T00:31:31.766Z,9.43
2022-09-26T00:34:00.036Z,7.97
2022-09-26T00:36:37.630Z,9.35
2022-09-26T00:39:11.143Z,8.82
2022-09-26T00:41:39.122Z,8.65
2022-09-26T00:44:43.971Z,8.65
2022-09-26T00:47:59.741Z,8.25
2022-09-26T00:50:32.718Z,8.60
2022-09-26T00:53:05.309Z,8.93
2022-09-26T00:55:38.541Z,8.77
2022-09-26T00:58:08.614Z,9.02
2022-09-26T01:00:37.497Z,9.02
2022-09-26T01:03:05.180Z,8.95
2022-09-26T01:05:33.092Z,8.35
2022-09-26T01:08:02.286Z,8.93
2022-09-26T01:10:30.238Z,8.77
2022-09-26T01:12:59.704Z,8.55
2022-09-26T01:15:29.343Z,7.47
2022-09-26T01:17:58.726Z,7.53
2022-09-26T01:21:04.547Z,7.45
2022-09-26T01:24:02.616Z,7.22
2022-09-26T01:26:43.165Z,6.78
2022-09-26T01:29:39.162Z,6.88
2022-09-26T01:32:44.794Z,6.50
2022-09-26T01:35:43.215Z,6.30
2022-09-26T01:38:25.117Z,6.85
2022-09-26T01:41:11.897Z,6.20
2022-09-26T01:43:55.080Z,6.68
2022-09-26T01:46:39.694Z,6.47
2022-09-26T01:49:14.784Z,6.32
2022-09-26T01:52:08.569Z,6.28
2022-09-26T01:54:49.762Z,7.18
2022-09-26T01:57:21.309Z,6.43
2022-09-26T01:59:56.561Z,6.72
2022-09-26T02:02:27.545Z,7.20
2022-09-26T02:05:00.787Z,7.22
2022-09-26T02:07:39.454Z,6.72
2022-09-26T02:10:17.030Z,7.07
2022-09-26T02:12:48.346Z,7.93
2022-09-26T02:15:20.306Z,7.32
2022-09-26T02:17:53.498Z,6.72
2022-09-26T02:20:41.687Z,7.88
2022-09-26T02:23:09.943Z,7.70
2022-09-26T02:25:37.720Z,7.72
2022-09-26T02:28:05.575Z,7.57
2022-09-26T02:30:33.188Z,8.20
2022-09-26T02:33:01.467Z,7.22
2022-09-26T02:35:47.912Z,7.50
2022-09-26T02:38:17.523Z,8.02
2022-09-26T02:41:07.441Z,8.60
2022-09-26T02:44:08.713Z,7.90
2022-09-26T02:46:47.221Z,8.32
2022-09-26T02:49:36.304Z,8.10
2022-09-26T02:52:34.373Z,8.25
2022-09-26T02:55:15.815Z,7.88
2022-09-26T02:57:48.928Z,7.65
2022-09-26T03:00:22.420Z,7.88
2022-09-26T03:03:23.176Z,7.38
2022-09-26T03:05:54.264Z,8.38
2022-09-26T03:08:33.565Z,8.02
2022-09-26T03:11:05.007Z,8.57
2022-09-26T03:13:37.973Z,7.80
2022-09-26T03:16:07.778Z,8.65
2022-09-26T03:18:42.041Z,7.32
2022-09-26T03:21:09.419Z,8.13
2022-09-26T03:23:37.909Z,7.50
2022-09-26T03:26:11.224Z,7.93
2022-09-26T03:28:47.084Z,8.05
2022-09-26T03:31:15.758Z,7.78
2022-09-26T03:33:51.877Z,7.22
2022-09-26T03:36:21.515Z,7.80
2022-09-26T03:38:48.644Z,7.38
2022-09-26T03:41:51.259Z,7.47
2022-09-26T03:44:29.704Z,7.38
2022-09-26T03:47:18.239Z,6.72
2022-09-26T03:49:49.341Z,7.88
2022-09-26T03:52:17.127Z,7.78
2022-09-26T03:54:45.097Z,7.88
2022-09-26T03:57:13.552Z,7.50
2022-09-26T03:59:47.224Z,8.70
2022-09-26T04:02:14.692Z,7.47
2022-09-26T04:04:45.985Z,7.07
2022-09-26T04:07:15.161Z,7.43
2022-09-26T04:09:42.413Z,7.90
2022-09-26T04:12:09.878Z,7.88
2022-09-26T04:14:43.735Z,7.88
2022-09-26T04:17:11.618Z,7.63
2022-09-26T04:19:42.710Z,7.50
2022-09-26T04:22:11.389Z,8.07
2022-09-26T04:24:38.602Z,8.20
2022-09-26T04:27:07.421Z,8.05
2022-09-26T04:29:35.321Z,8.25
2022-09-26T04:32:38.495Z,7.45
2022-09-26T04:35:35.162Z,8.25
2022-09-26T04:38:03.185Z,7.65
2022-09-26T04:40:31.665Z,7.63
2022-09-26T04:43:17.268Z,8.18
2022-09-26T04:45:44.749Z,8.95
2022-09-26T04:48:13.575Z,7.47
2022-09-26T04:51:05.985Z,7.28
2022-09-26T04:53:34.274Z,7.68
2022-09-26T04:56:14.981Z,8.02
2022-09-26T04:58:43.672Z,8.60
2022-09-26T05:01:14.318Z,7.95
2022-09-26T05:04:13.050Z,7.95
2022-09-26T05:06:40.351Z,6.30
2022-09-26T05:09:13.130Z,6.85
2022-09-26T05:11:46.974Z,5.85
2022-09-26T05:14:14.786Z,5.88
2022-09-26T05:16:42.010Z,5.88
2022-09-26T05:19:13.016Z,4.68
2022-09-26T05:21:51.628Z,5.20
2022-09-26T05:24:37.161Z,4.70
2022-09-26T05:27:06.408Z,4.45
2022-09-26T05:29:33.782Z,4.35
2022-09-26T05:32:04.730Z,4.45
2022-09-26T05:34:36.389Z,4.78
2022-09-26T05:37:04.792Z,4.18
2022-09-26T05:39:51.448Z,4.53
2022-09-26T05:42:19.768Z,4.28
2022-09-26T05:44:47.293Z,4.00
2022-09-26T05:47:14.698Z,3.55
2022-09-26T05:49:41.958Z,3.58
2022-09-26T05:52:13.242Z,4.57
2022-09-26T05:54:40.349Z,4.00
2022-09-26T05:57:27.532Z,4.32
2022-09-26T05:59:56.350Z,3.65
2022-09-26T06:02:26.351Z,3.40
2022-09-26T06:05:12.724Z,4.13
2022-09-26T06:08:11.827Z,3.65
2022-09-26T06:10:43.310Z,3.43
2022-09-26T06:13:10.466Z,3.60
2022-09-26T06:15:44.990Z,3.63
2022-09-26T06:18:12.145Z,3.47
2022-09-26T06:20:39.944Z,3.35
2022-09-26T06:23:07.225Z,2.97
2022-09-26T06:25:38.227Z,2.65
2022-09-26T06:28:06.782Z,2.95
2022-09-26T06:30:36.445Z,2.20
2022-09-26T06:33:11.733Z,2.28
2022-09-26T06:36:01.784Z,1.98
2022-09-26T06:38:35.055Z,2.25
2022-09-26T06:41:04.187Z,2.50
2022-09-26T06:43:31.699Z,2.20
2022-09-26T06:46:21.139Z,2.15
2022-09-26T06:48:54.157Z,2.70
2022-09-26T06:51:49.122Z,2.50
2022-09-26T06:54:17.745Z,2.80
2022-09-26T06:56:44.874Z,2.67
2022-09-26T06:59:13.050Z,2.63
2022-09-26T07:01:50.887Z,2.42
2022-09-26T07:04:41.492Z,2.28
2022-09-26T07:07:25.742Z,2.10
2022-09-26T07:09:56.312Z,1.92
2022-09-26T07:12:40.994Z,1.90
2022-09-26T07:15:09.832Z,2.42
2022-09-26T07:17:37.841Z,2.17
2022-09-26T07:20:23.341Z,1.80
2022-09-26T07:22:50.471Z,2.08
2022-09-26T07:25:20.276Z,2.10
2022-09-26T07:27:52.315Z,1.80
2022-09-26T07:30:23.891Z,2.17
2022-09-26T07:33:03.740Z,2.17
2022-09-26T07:35:37.174Z,2.10
2022-09-26T07:38:05.236Z,1.80
2022-09-26T07:40:32.625Z,1.90
2022-09-26T07:43:22.349Z,1.95
2022-09-26T07:46:12.407Z,1.90
2022-09-26T07:49:01.462Z,1.90
2022-09-26T07:51:49.759Z,1.50
2022-09-26T07:54:24.223Z,1.75
2022-09-26T07:57:35.608Z,1.75
2022-09-26T08:00:26.504Z,1.55
2022-09-26T08:03:07.207Z,1.42
2022-09-26T08:05:38.922Z,1.38
2022-09-26T08:08:06.142Z,1.48
2022-09-26T08:11:02.780Z,1.40
2022-09-26T08:13:46.291Z,1.30
2022-09-26T08:16:33.108Z,1.30
2022-09-26T08:19:04.596Z,1.58
2022-09-26T08:21:31.802Z,1.95
2022-09-26T08:24:02.567Z,1.95
2022-09-26T08:26:47.230Z,1.95
2022-09-26T08:29:32.312Z,1.55
2022-09-26T08:32:02.289Z,1.42
2022-09-26T08:34:32.236Z,1.48
2022-09-26T08:37:21.138Z,1.60
2022-09-26T08:40:10.241Z,1.60
2022-09-26T08:43:02.838Z,1.60
2022-09-26T08:46:37.170Z,1.40
2022-09-26T08:49:52.864Z,1.23
2022-09-26T08:52:38.928Z,1.30
2022-09-26T08:55:13.997Z,1.40
2022-09-26T08:57:47.156Z,1.67
2022-09-26T09:00:26.224Z,1.60
2022-09-26T09:03:25.379Z,2.00
2022-09-26T09:06:06.507Z,1.60
2022-09-26T09:08:51.579Z,1.90
2022-09-26T09:11:51.039Z,1.80
2022-09-26T09:15:13.785Z,1.80
2022-09-26T09:18:14.173Z,1.70
2022-09-26T09:21:29.747Z,1.80
2022-09-26T09:24:56.951Z,1.83
2022-09-26T09:28:00.082Z,2.30
2022-09-26T09:30:35.214Z,1.90
2022-09-26T09:33:43.052Z,1.80
2022-09-26T09:36:42.116Z,1.70
2022-09-26T09:39:33.521Z,1.83
2022-09-26T09:42:35.437Z,2.00
2022-09-26T09:45:16.084Z,1.80
2022-09-26T09:47:46.229Z,1.58
2022-09-26T09:50:30.532Z,1.92
2022-09-26T09:53:06.390Z,1.63
2022-09-26T09:55:55.645Z,1.40
2022-09-26T09:58:44.611Z,1.38
2022-09-26T10:01:16.131Z,1.80
2022-09-26T10:03:55.560Z,1.70
2022-09-26T10:06:44.387Z,2.10
2022-09-26T10:09:38.526Z,1.70
2022-09-26T10:12:28.933Z,1.95
2022-09-26T10:15:27.569Z,2.33
2022-09-26T10:18:26.753Z,2.08
2022-09-26T10:21:19.138Z,1.88
2022-09-26T10:23:49.499Z,1.95
2022-09-26T10:26:35.303Z,1.90
2022-09-26T10:29:34.563Z,1.65
2022-09-26T10:32:05.216Z,1.60
2022-09-26T10:34:35.716Z,1.73
2022-09-26T10:37:23.444Z,1.85
2022-09-26T10:40:17.411Z,1.60
2022-09-26T10:42:47.221Z,1.60
2022-09-26T10:45:27.307Z,1.50
2022-09-26T10:48:02.512Z,1.45
2022-09-26T10:51:04.311Z,1.55
2022-09-26T10:53:41.541Z,1.38
2022-09-26T10:56:14.256Z,1.80
2022-09-26T10:58:46.006Z,1.50
2022-09-26T11:01:27.989Z,1.40
2022-09-26T11:04:00.426Z,1.40
2022-09-26T11:06:36.423Z,1.58
2022-09-26T11:09:23.939Z,1.50
2022-09-26T11:12:25.536Z,1.50
2022-09-26T11:14:57.731Z,1.90
2022-09-26T11:17:45.389Z,2.08
2022-09-26T11:20:25.716Z,1.77
2022-09-26T11:23:04.902Z,1.60
2022-09-26T11:25:42.821Z,1.30
2022-09-26T11:28:17.830Z,1.80
2022-09-26T11:31:15.821Z,1.80
2022-09-26T11:33:48.290Z,2.10
2022-09-26T11:36:41.762Z,1.38
2022-09-26T11:39:38.338Z,1.13
2022-09-26T11:42:25.477Z,1.20
2022-09-26T11:45:01.360Z,1.17
2022-09-26T11:48:18.683Z,1.17
2022-09-26T11:51:54.249Z,1.23
2022-09-26T11:54:33.528Z,1.30
2022-09-26T11:57:25.947Z,1.50
2022-09-26T11:59:58.865Z,1.38
2022-09-26T12:03:00.641Z,1.23
2022-09-26T12:06:00.702Z,1.77
2022-09-26T12:08:47.545Z,1.40
2022-09-26T12:11:19.606Z,1.50
2022-09-26T12:13:52.475Z,1.40
2022-09-26T12:19:11.518Z,1.27
2022-09-26T12:22:31.083Z,1.00
2022-09-26T12:25:07.992Z,1.67
2022-09-26T12:27:58.890Z,1.20
2022-09-26T12:30:49.029Z,1.50
2022-09-26T12:33:44.108Z,1.40
2022-09-26T12:36:18.953Z,1.65
2022-09-26T12:38:56.778Z,1.80
2022-09-26T12:41:51.905Z,1.50
2022-09-26T12:44:24.863Z,1.70
2022-09-26T12:49:47.875Z,1.65
2022-09-26T12:52:42.016Z,1.60
2022-09-26T12:55:44.410Z,1.80
2022-09-26T12:58:43.549Z,1.85
2022-09-26T13:01:45.245Z,1.60
2022-09-26T13:04:32.220Z,2.65
2022-09-26T13:07:18.956Z,1.50
2022-09-26T13:10:19.221Z,1.60
2022-09-26T13:12:55.756Z,1.67
2022-09-26T13:15:36.939Z,1.75
2022-09-26T13:18:16.588Z,1.80
2022-09-26T13:20:50.552Z,1.50
2022-09-26T13:23:39.677Z,1.60
2022-09-26T13:26:15.049Z,2.03
2022-09-26T13:29:12.972Z,2.28
2022-09-26T13:32:34.330Z,1.67
2022-09-26T13:35:13.132Z,1.95
2022-09-26T13:38:11.120Z,2.17
2022-09-26T13:41:02.565Z,1.75
2022-09-26T13:43:47.540Z,1.60
2022-09-26T13:46:44.159Z,1.60
2022-09-26T13:49:20.412Z,1.50
2022-09-26T13:52:13.925Z,1.65
2022-09-26T13:55:02.953Z,1.67
2022-09-26T13:57:35.245Z,1.60
2022-09-26T14:00:17.868Z,1.38
2022-09-26T14:03:13.001Z,1.40
2022-09-26T14:05:50.058Z,1.30
2022-09-26T14:08:51.657Z,1.25
2022-09-26T14:11:30.918Z,1.42
2022-09-26T14:14:18.030Z,1.70
2022-09-26T14:16:51.112Z,1.60
2022-09-26T14:19:20.433Z,1.40
2022-09-26T14:22:06.062Z,1.60
2022-09-26T14:24:41.603Z,1.98
2022-09-26T14:27:11.610Z,1.90
2022-09-26T14:29:39.979Z,1.60
2022-09-26T14:32:10.565Z,1.75
2022-09-26T14:34:46.804Z,2.00
2022-09-26T14:37:25.574Z,2.00
2022-09-26T14:40:02.064Z,1.70
2022-09-26T14:42:38.705Z,1.83
2022-09-26T14:45:28.130Z,1.85
2022-09-26T14:48:13.048Z,1.90
2022-09-26T14:50:47.427Z,2.15
2022-09-26T14:53:40.241Z,1.92
2022-09-26T14:56:16.175Z,2.17
2022-09-26T14:58:48.349Z,2.30
2022-09-26T15:01:39.995Z,2.38
2022-09-26T15:04:21.049Z,2.70
2022-09-26T15:06:52.280Z,2.55
2022-09-26T15:09:27.535Z,2.53
2022-09-26T15:11:59.851Z,2.80
2022-09-26T15:14:45.497Z,2.30
2022-09-26T15:17:18.797Z,2.45
2022-09-26T15:19:52.854Z,2.70
2022-09-26T15:22:23.894Z,2.65
2022-09-26T15:24:55.549Z,3.20
2022-09-26T15:27:29.228Z,3.28
2022-09-26T15:30:04.961Z,3.40
2022-09-26T15:32:33.885Z,3.05
2022-09-26T15:35:02.669Z,2.70
2022-09-26T15:37:36.253Z,3.33
2022-09-26T15:40:23.325Z,3.25
2022-09-26T15:43:10.798Z,4.07
2022-09-26T15:45:46.846Z,2.90
2022-09-26T15:48:19.966Z,3.10
2022-09-26T15:51:14.148Z,3.47
2022-09-26T15:53:46.684Z,2.92
2022-09-26T15:56:18.768Z,2.75
2022-09-26T15:58:49.346Z,3.17
2022-09-26T16:01:19.345Z,3.03
2022-09-26T16:03:46.709Z,2.85
2022-09-26T16:06:13.843Z,2.78
2022-09-26T16:08:42.777Z,3.40
2022-09-26T16:11:10.347Z,2.67
2022-09-26T16:13:43.084Z,2.67
2022-09-26T16:16:16.514Z,2.42
2022-09-26T16:19:04.267Z,2.28
2022-09-26T16:21:36.540Z,2.83
2022-09-26T16:24:42.472Z,2.78
2022-09-26T16:27:24.730Z,2.78
2022-09-26T16:30:02.580Z,3.10
2022-09-26T16:32:32.560Z,2.85
2022-09-26T16:35:17.522Z,3.10
2022-09-26T16:37:45.136Z,2.63
2022-09-26T16:40:18.473Z,3.17
2022-09-26T16:42:46.430Z,3.85
2022-09-26T16:45:14.936Z,2.97
2022-09-26T16:47:44.745Z,3.90
2022-09-26T16:50:19.980Z,3.22
2022-09-26T16:52:47.255Z,3.00
2022-09-26T16:55:17.164Z,3.13
2022-09-26T16:58:05.702Z,2.92
2022-09-26T17:00:54.235Z,3.03
2022-09-26T17:03:32.261Z,3.10
2022-09-26T17:06:00.624Z,3.20
2022-09-26T17:08:29.036Z,3.17
2022-09-26T17:11:04.965Z,3.20
2022-09-26T17:13:35.597Z,4.05
2022-09-26T17:16:03.742Z,2.58
2022-09-26T17:18:35.079Z,3.17
2022-09-26T17:21:03.196Z,2.70
2022-09-26T17:23:40.387Z,3.20
2022-09-26T17:26:16.562Z,3.00
2022-09-26T17:28:43.923Z,2.72
2022-09-26T17:31:23.479Z,3.00
2022-09-26T17:33:54.411Z,3.27
2022-09-26T17:36:25.686Z,3.63
2022-09-26T17:38:53.659Z,2.75
2022-09-26T17:41:23.167Z,2.90
2022-09-26T17:43:59.217Z,3.70
2022-09-26T17:46:27.935Z,3.15
2022-09-26T17:48:56.749Z,3.00
2022-09-26T17:51:25.400Z,2.90
2022-09-26T17:53:52.887Z,2.92
2022-09-26T17:56:22.150Z,3.17
2022-09-26T17:58:51.449Z,2.90
2022-09-26T18:01:28.023Z,2.80
2022-09-26T18:04:01.060Z,3.17
2022-09-26T18:09:05.371Z,3.20
2022-09-26T18:11:34.664Z,3.10
2022-09-26T18:14:04.455Z,3.22
2022-09-26T18:16:31.850Z,3.28
2022-09-26T18:19:02.176Z,3.20
2022-09-26T18:21:32.167Z,3.55
2022-09-26T18:24:02.398Z,4.25
2022-09-26T18:26:32.869Z,3.00
2022-09-26T18:29:06.343Z,4.20
2022-09-26T18:31:38.632Z,3.40
2022-09-26T18:34:11.491Z,3.17
2022-09-26T18:39:05.879Z,3.28
2022-09-26T18:41:33.298Z,3.53
2022-09-26T18:44:02.341Z,3.95
2022-09-26T18:46:30.829Z,3.72
2022-09-26T18:48:59.834Z,4.60
2022-09-26T18:51:27.489Z,4.32
2022-09-26T18:53:55.066Z,4.65
2022-09-26T18:56:40.607Z,7.10
2022-09-26T18:59:10.248Z,5.72
2022-09-26T19:01:41.527Z,5.30
2022-09-26T19:04:17.086Z,5.68
2022-09-26T19:06:47.454Z,5.55
2022-09-26T19:09:20.579Z,5.80
2022-09-26T19:11:48.479Z,5.63
2022-09-26T19:14:18.231Z,7.18
2022-09-26T19:16:47.202Z,5.72
2022-09-26T19:19:15.035Z,5.85
2022-09-26T19:21:50.894Z,6.05
2022-09-26T19:24:23.983Z,5.38
2022-09-26T19:27:09.932Z,5.80
2022-09-26T19:29:50.234Z,6.07
2022-09-26T19:32:31.161Z,6.55
2022-09-26T19:35:05.740Z,6.15
2022-09-26T19:37:32.918Z,5.57
2022-09-26T19:40:00.854Z,5.70
2022-09-26T19:42:27.974Z,6.07
2022-09-26T19:44:56.448Z,5.20
2022-09-26T19:47:23.829Z,5.10
2022-09-26T19:49:52.870Z,4.78
2022-09-26T19:52:22.234Z,4.30
2022-09-26T19:54:49.614Z,5.05
2022-09-26T19:57:19.042Z,4.70
2022-09-26T19:59:46.686Z,5.22
2022-09-26T20:02:16.964Z,5.10
2022-09-26T20:04:45.120Z,5.50
2022-09-26T20:07:18.303Z,5.88
2022-09-26T20:09:46.814Z,4.43
2022-09-26T20:12:14.714Z,4.80
2022-09-26T20:14:41.948Z,4.50
2022-09-26T20:17:19.279Z,4.70
2022-09-26T20:19:48.626Z,4.70
2022-09-26T20:22:20.178Z,4.55
2022-09-26T20:24:49.506Z,3.92
2022-09-26T20:27:26.130Z,3.85
2022-09-26T20:30:12.350Z,4.30
2022-09-26T20:32:46.239Z,5.20
2022-09-26T20:35:14.845Z,4.85
2022-09-26T20:37:42.924Z,4.55
2022-09-26T20:40:24.172Z,4.80
2022-09-26T20:43:04.114Z,4.93
2022-09-26T20:45:40.710Z,4.03
2022-09-26T20:48:16.802Z,4.53
2022-09-26T20:50:44.341Z,4.70
2022-09-26T20:53:19.528Z,5.03
2022-09-26T20:55:49.868Z,5.10
2022-09-26T20:58:17.055Z,4.63
2022-09-26T21:00:44.796Z,4.65
2022-09-26T21:03:17.278Z,5.13
2022-09-26T21:05:48.246Z,4.65
2022-09-26T21:08:27.831Z,4.75
2022-09-26T21:10:56.274Z,5.32
2022-09-26T21:13:23.889Z,4.63
2022-09-26T21:15:52.566Z,6.60
2022-09-26T21:18:28.690Z,5.18
2022-09-26T21:21:04.207Z,4.25
2022-09-26T21:23:50.705Z,4.88
2022-09-26T21:26:26.255Z,4.60
2022-09-26T21:28:55.727Z,5.07
2022-09-26T21:31:29.897Z,5.60
2022-09-26T21:33:58.960Z,5.80
2022-09-26T21:36:34.952Z,6.40
2022-09-26T21:39:02.657Z,5.07
2022-09-26T21:41:30.040Z,5.30
2022-09-26T21:44:06.118Z,5.25
2022-09-26T21:46:33.264Z,5.43
2022-09-26T21:49:00.377Z,7.18
2022-09-26T21:51:28.309Z,5.40
2022-09-26T21:54:07.165Z,5.45
2022-09-26T21:56:46.772Z,6.22
2022-09-26T21:59:14.058Z,6.90
2022-09-26T22:01:41.303Z,5.97
2022-09-26T22:04:08.887Z,6.97
2022-09-26T22:06:36.007Z,6.85
2022-09-26T22:09:03.209Z,5.65
2022-09-26T22:11:31.067Z,6.13
2022-09-26T22:13:58.591Z,5.75
2022-09-26T22:16:25.846Z,5.70
2022-09-26T22:18:53.177Z,5.57
2022-09-26T22:21:20.430Z,5.80
2022-09-26T22:23:51.920Z,6.03
2022-09-26T22:26:20.097Z,5.97
2022-09-26T22:28:50.546Z,5.60
2022-09-26T22:31:18.072Z,5.78
2022-09-26T22:33:48.365Z,5.28
2022-09-26T22:36:16.429Z,5.57
2022-09-26T22:38:43.545Z,6.43
2022-09-26T22:41:11.003Z,6.60
2022-09-26T22:43:38.210Z,6.72
2022-09-26T22:46:10.818Z,5.60
2022-09-26T22:48:49.179Z,6.53
2022-09-26T22:51:17.553Z,5.60
2022-09-26T22:53:45.219Z,5.30
2022-09-26T22:56:16.261Z,5.57
2022-09-26T22:58:47.127Z,5.40
2022-09-26T23:01:23.649Z,5.35
2022-09-26T23:03:54.574Z,5.32
2022-09-26T23:06:23.127Z,6.45
2022-09-26T23:08:50.852Z,5.10
2022-09-26T23:11:18.780Z,5.45
2022-09-26T23:13:46.820Z,5.80
2022-09-26T23:16:17.401Z,5.03
2022-09-26T23:18:45.069Z,5.55
2022-09-26T23:21:20.132Z,5.63
2022-09-26T23:23:49.665Z,5.10
2022-09-26T23:26:23.199Z,5.28
2022-09-26T23:28:51.751Z,5.30
2022-09-26T23:31:19.404Z,5.35
2022-09-26T23:33:47.059Z,4.80
2022-09-26T23:36:15.113Z,4.40
2022-09-26T23:38:42.674Z,4.70
2022-09-26T23:41:11.581Z,4.75
2022-09-26T23:43:39.793Z,4.70
2022-09-26T23:46:07.734Z,5.80
2022-09-26T23:48:35.181Z,5.30
2022-09-26T23:51:02.561Z,6.88
2022-09-26T23:53:30.688Z,6.68
2022-09-26T23:56:09.626Z,8.23
2022-09-26T23:58:38.139Z,9.27
